Time;durP1;ratioP1;P1;durP2;ratioP2;P2;SDS_P1;SDS_P2;PMS_P1;PMS_P2;Temp;Humidity;BMP_temperature;BMP_pressure;BME280_temperature;BME280_humidity;BME280_pressure;Samples;Min_cycle;Max_cycle;Signal;HPM_P1;HPM_P2
2023/03/08 00:21:15;;;;;;;27.20;13.93;;;;;;;6.60;57.91;98394.59;7708924;32;38839;-85
2023/03/08 00:25:31;;;;;;;26.67;14.63;;;;;;;6.96;56.59;98373.50;7944468;26;40095;-82
2023/03/08 00:29:47;;;;;;;28.05;14.50;;;;;;;6.85;56.85;98360.34;7709185;32;39480;-82
2023/03/08 00:34:04;;;;;;;26.45;14.55;;;;;;;6.82;56.44;98379.84;7709866;32;37937;-82
2023/03/08 00:38:20;;;;;;;29.92;15.75;;;;;;;6.87;55.88;98386.03;7709156;32;38188;-82
2023/03/08 00:42:36;;;;;;;31.87;15.98;;;;;;;6.67;57.01;98391.59;7709470;32;39296;-81
2023/03/08 00:46:53;;;;;;;27.27;15.45;;;;;;;6.68;57.00;98404.84;7709027;32;39969;-81
2023/03/08 00:51:12;;;;;;;29.00;14.85;;;;;;;6.68;57.05;98414.88;7709522;32;37922;-81
2023/03/08 00:55:28;;;;;;;30.40;15.07;;;;;;;6.64;57.57;98413.81;7707745;32;36976;-82
2023/03/08 00:59:44;;;;;;;30.58;16.02;;;;;;;6.68;57.82;98421.09;7709004;32;39791;-81
2023/03/08 01:04:02;;;;;;;25.92;15.35;;;;;;;6.82;57.81;98425.91;7708999;32;40860;-81
2023/03/08 01:08:20;;;;;;;32.22;16.45;;;;;;;6.72;58.24;98430.28;7708467;32;37862;-81
2023/03/08 01:12:37;;;;;;;31.42;16.92;;;;;;;6.84;58.05;98429.94;7708730;32;37826;-82
2023/03/08 01:16:53;;;;;;;31.77;16.92;;;;;;;6.91;57.97;98426.91;7708330;32;40108;-81
2023/03/08 01:21:10;;;;;;;29.77;16.92;;;;;;;6.80;58.30;98422.66;7708091;32;39975;-82
2023/03/08 01:25:27;;;;;;;29.37;15.02;;;;;;;7.07;57.88;98425.75;7707713;32;37908;-81
2023/03/08 01:29:44;;;;;;;34.00;15.98;;;;;;;6.98;58.18;98435.53;7708359;32;37623;-83
2023/03/08 01:34:00;;;;;;;30.42;15.38;;;;;;;6.95;58.55;98433.38;7709439;32;40203;-82
2023/03/08 01:38:16;;;;;;;29.00;15.55;;;;;;;7.15;57.39;98435.16;7711899;32;39710;-81
2023/03/08 01:42:32;;;;;;;25.70;14.32;;;;;;;6.80;58.55;98444.34;7711911;32;37590;-82
2023/03/08 01:46:49;;;;;;;30.70;15.32;;;;;;;6.84;58.24;98439.97;7712079;32;37250;-81
2023/03/08 01:51:08;;;;;;;31.80;16.92;;;;;;;6.79;59.36;98437.28;7711038;32;39356;-81
2023/03/08 01:55:24;;;;;;;33.28;18.02;;;;;;;6.95;59.35;98436.94;7710749;32;39978;-82
2023/03/08 01:59:41;;;;;;;32.15;17.30;;;;;;;7.08;59.84;98426.53;7710590;32;37645;-82
2023/03/08 02:03:58;;;;;;;32.63;16.55;;;;;;;7.07;60.11;98428.44;7709964;32;37948;-83
2023/03/08 02:08:14;;;;;;;34.88;17.70;;;;;;;7.22;60.29;98429.41;7710570;32;40648;-82
2023/03/08 02:12:31;;;;;;;30.45;17.17;;;;;;;7.22;61.18;98421.28;7711715;32;39836;-81
2023/03/08 02:16:47;;;;;;;32.97;17.45;;;;;;;7.37;60.32;98420.38;7710150;32;38127;-81
2023/03/08 02:21:03;;;;;;;32.58;17.23;;;;;;;7.33;61.42;98428.25;7711303;32;38016;-82
2023/03/08 02:25:25;;;;;;;30.12;16.27;;;;;;;7.59;60.89;98428.00;7711308;32;40105;-81
2023/03/08 02:29:41;;;;;;;34.03;18.15;;;;;;;7.33;62.00;98433.69;7711433;32;38936;-82
2023/03/08 02:33:57;;;;;;;30.08;16.60;;;;;;;6.93;64.19;98443.69;7711254;32;38642;-83
2023/03/08 02:38:16;;;;;;;33.25;17.40;;;;;;;7.32;63.11;98448.31;7711453;32;37175;-82
2023/03/08 02:42:33;;;;;;;36.42;17.58;;;;;;;6.84;65.14;98450.81;7711541;32;40103;-82
2023/03/08 02:46:49;;;;;;;32.55;16.87;;;;;;;6.41;66.57;98458.59;7710903;32;39996;-81
2023/03/08 02:51:06;;;;;;;35.22;18.73;;;;;;;6.12;68.49;98461.94;7710841;32;37835;-81
2023/03/08 02:55:22;;;;;;;31.10;16.05;;;;;;;6.41;67.38;98453.19;7711056;32;37457;-82
2023/03/08 02:59:38;;;;;;;36.05;17.40;;;;;;;6.15;67.68;98466.81;7710982;32;40128;-80
2023/03/08 03:03:55;;;;;;;35.58;17.45;;;;;;;6.45;67.22;98465.06;7710627;32;39892;-81
2023/03/08 03:08:11;;;;;;;38.45;17.80;;;;;;;6.15;68.05;98466.81;7710819;32;38078;-81
2023/03/08 03:12:28;;;;;;;32.65;16.35;;;;;;;6.04;68.19;98486.84;7710092;32;37358;-81
2023/03/08 03:16:45;;;;;;;34.22;16.95;;;;;;;5.94;68.30;98491.16;7709561;32;39374;-81
2023/03/08 03:21:06;;;;;;;29.92;16.02;;;;;;;6.49;66.80;98487.81;7710818;32;39957;-82
2023/03/08 03:25:22;;;;;;;37.58;17.58;;;;;;;6.12;67.75;98499.81;7709966;32;37665;-82
2023/03/08 03:29:38;;;;;;;37.08;19.05;;;;;;;5.97;68.28;98504.19;7711054;32;37770;-82
2023/03/08 03:33:55;;;;;;;34.05;18.25;;;;;;;5.84;68.90;98515.53;7710037;32;40064;-82
2023/03/08 03:38:11;;;;;;;34.92;18.23;;;;;;;5.63;69.47;98517.44;7710971;32;40076;-82
2023/03/08 03:42:27;;;;;;;39.00;18.65;;;;;;;5.76;68.95;98513.34;7710136;32;38593;-82
2023/03/08 03:46:44;;;;;;;36.95;17.73;;;;;;;5.57;69.82;98524.72;7710648;32;37955;-82
2023/03/08 03:51:06;;;;;;;35.03;17.42;;;;;;;6.24;67.21;98519.28;7710253;32;39482;-81
2023/03/08 03:55:22;;;;;;;42.90;18.35;;;;;;;6.35;66.82;98534.41;7709946;32;40036;-82
2023/03/08 03:59:38;;;;;;;36.00;17.75;;;;;;;5.93;68.39;98540.13;7708962;32;37959;-82
2023/03/08 04:03:55;;;;;;;35.83;17.83;;;;;;;6.08;67.26;98533.94;7709802;32;37656;-83
2023/03/08 04:08:12;;;;;;;37.78;19.05;;;;;;;6.63;65.13;98532.16;7709988;32;40043;-81
2023/03/08 04:12:28;;;;;;;36.45;19.45;;;;;;;6.45;65.29;98541.72;7710164;32;39782;-81
2023/03/08 04:16:44;;;;;;;42.20;19.25;;;;;;;6.57;65.00;98533.25;7709571;32;37539;-81
2023/03/08 04:21:01;;;;;;;39.45;18.92;;;;;;;6.36;65.80;98540.63;7709512;32;38390;-82
2023/03/08 04:25:17;;;;;;;43.00;20.67;;;;;;;6.50;65.36;98543.56;7709413;32;39723;-82
2023/03/08 04:29:34;;;;;;;36.88;19.25;;;;;;;6.49;65.18;98548.19;7709366;32;39901;-82
2023/03/08 04:33:51;;;;;;;40.63;19.05;;;;;;;6.66;64.48;98541.66;7708757;32;38193;-82
2023/03/08 04:38:07;;;;;;;43.28;20.02;;;;;;;6.61;64.40;98545.16;7709665;32;37842;-82
2023/03/08 04:42:23;;;;;;;40.42;19.80;;;;;;;6.63;64.54;98548.41;7709333;32;40142;-81
2023/03/08 04:46:40;;;;;;;37.35;19.42;;;;;;;6.74;64.04;98544.59;7709581;32;39888;-82
2023/03/08 04:50:58;;;;;;;39.97;18.70;;;;;;;6.76;64.01;98542.41;7709100;32;38862;-82
2023/03/08 04:55:14;;;;;;;37.63;19.15;;;;;;;6.68;63.94;98545.69;7696783;32;38427;-81
2023/03/08 04:59:30;;;;;;;34.90;17.98;;;;;;;6.70;64.03;98538.09;7709229;32;39067;-81
2023/03/08 05:03:48;;;;;;;35.33;19.45;;;;;;;6.72;64.15;98544.03;7708436;32;39699;-81
2023/03/08 05:08:04;;;;;;;35.47;18.25;;;;;;;6.71;64.07;98539.72;7708982;32;38457;-82
2023/03/08 05:12:21;;;;;;;37.65;17.65;;;;;;;6.09;65.73;98544.47;7712749;32;37161;-82
2023/03/08 05:16:37;;;;;;;34.13;18.45;;;;;;;6.45;64.72;98557.94;7712274;32;39410;-82
2023/03/08 05:20:55;;;;;;;31.65;17.37;;;;;;;6.52;63.60;98553.06;7712276;32;39888;-83
2023/03/08 05:25:12;;;;;;;35.28;16.87;;;;;;;5.34;66.29;98561.19;7711326;32;36832;-83
2023/03/08 05:29:28;;;;;;;30.55;14.95;;;;;;;5.67;63.88;98564.47;7712028;32;37075;-82
2023/03/08 05:33:48;;;;;;;31.67;16.05;;;;;;;5.65;62.90;98567.44;7712026;32;39081;-82
2023/03/08 05:38:04;;;;;;;24.27;14.23;;;;;;;5.68;62.46;98576.13;7711849;32;40875;-83
2023/03/08 05:42:20;;;;;;;29.80;14.35;;;;;;;5.52;62.05;98578.78;7711774;32;38453;-81
2023/03/08 05:46:37;;;;;;;25.60;13.62;;;;;;;5.79;61.16;98588.53;7711590;32;37499;-81
2023/03/08 05:50:54;;;;;;;25.73;14.32;;;;;;;5.21;61.92;98597.66;7722948;32;39354;-81
2023/03/08 05:55:10;;;;;;;25.12;13.15;;;;;;;5.86;60.13;98589.09;7715768;32;39753;-81
2023/03/08 05:59:26;;;;;;;29.55;13.60;;;;;;;6.20;57.99;98602.09;7703695;32;37506;-81
2023/03/08 06:03:48;;;;;;;28.27;13.70;;;;;;;6.52;57.07;98609.09;7711381;32;37416;-82
2023/03/08 06:08:04;;;;;;;21.85;11.85;;;;;;;6.71;55.41;98620.97;7711743;32;38424;-82
2023/03/08 06:12:21;;;;;;;24.42;12.88;;;;;;;7.01;54.17;98630.09;7711848;32;40923;-81
2023/03/08 06:16:37;;;;;;;22.95;12.55;;;;;;;6.99;53.56;98621.44;7711659;32;36570;-82
2023/03/08 06:21:01;;;;;;;23.38;11.27;;;;;;;6.87;52.62;98623.66;7710799;32;38007;-83
2023/03/08 06:25:17;;;;;;;20.80;10.70;;;;;;;7.29;52.18;98620.47;7710778;32;40142;-82
2023/03/08 06:29:35;;;;;;;21.58;11.23;;;;;;;7.32;52.07;98633.47;7711429;32;38862;-82
2023/03/08 06:33:52;;;;;;;18.75;9.98;;;;;;;7.75;51.74;98638.41;7711259;32;37826;-81
2023/03/08 06:38:08;;;;;;;19.55;9.98;;;;;;;7.57;50.22;98647.19;7710813;32;37287;-82
2023/03/08 06:42:24;;;;;;;21.95;10.02;;;;;;;8.06;49.45;98649.03;7710729;32;39026;-81
2023/03/08 06:46:56;;;;;;;18.98;9.18;;;;;;;8.33;48.91;98653.16;7710994;32;40009;-75
2023/03/08 06:51:14;;;;;;;18.45;8.38;;;;;;;8.76;54.28;98656.88;7711019;32;37990;-81
2023/03/08 06:55:33;;;;;;;23.67;9.35;;;;;;;9.14;48.58;98661.63;7703825;32;37217;-83
2023/03/08 06:59:49;;;;;;;15.73;8.27;;;;;;;9.48;44.81;98660.66;7708698;32;38484;-84
2023/03/08 07:04:06;;;;;;;23.48;9.32;;;;;;;9.08;44.63;98673.66;7710652;32;40747;-82
2023/03/08 07:08:23;;;;;;;17.95;8.68;;;;;;;8.93;43.52;98689.03;7711178;32;38558;-82
2023/03/08 07:12:45;;;;;;;17.23;8.63;;;;;;;8.84;43.98;98685.31;7711563;32;37430;-83
2023/03/08 07:17:01;;;;;;;17.20;8.80;;;;;;;8.78;45.21;98687.28;7705468;32;173626;-82
2023/03/08 07:21:20;;;;;;;17.30;9.25;;;;;;;8.83;43.29;98694.59;7710897;32;39918;-81
2023/03/08 07:25:41;;;;;;;15.90;8.35;;;;;;;9.08;42.98;98698.94;7710935;32;37466;-81
2023/03/08 07:29:59;;;;;;;18.97;8.80;;;;;;;9.09;42.64;98692.41;7711177;32;37188;-81
2023/03/08 07:34:15;;;;;;;16.48;8.90;;;;;;;9.12;42.33;98699.97;7710299;32;39412;-82
2023/03/08 07:38:31;;;;;;;20.27;8.82;;;;;;;9.57;42.71;98686.12;7711211;32;39932;-83
2023/03/08 07:42:48;;;;;;;17.12;9.45;;;;;;;9.57;42.18;98691.56;7711054;32;37772;-81
2023/03/08 07:47:05;;;;;;;20.08;9.90;;;;;;;9.45;41.82;98700.16;7710665;32;37089;-82
2023/03/08 07:51:22;;;;;;;18.27;9.55;;;;;;;10.02;41.30;98696.66;7710310;32;39394;-81
2023/03/08 07:55:38;;;;;;;20.60;9.55;;;;;;;9.67;41.11;98707.75;7709918;32;40681;-82
2023/03/08 07:59:57;;;;;;;18.87;9.13;;;;;;;9.85;40.27;98708.91;7711084;32;36725;-81
2023/03/08 08:04:13;;;;;;;14.75;7.90;;;;;;;10.30;40.77;98697.63;7710713;32;37901;-82
2023/03/08 08:08:32;;;;;;;14.73;8.07;;;;;;;10.60;41.03;98692.81;7711084;32;38293;-84
2023/03/08 08:12:48;;;;;;;15.70;7.93;;;;;;;11.14;37.92;98683.09;7710527;32;41082;-82
2023/03/08 08:17:04;;;;;;;14.57;7.12;;;;;;;11.33;36.64;98695.81;7709750;32;37758;-81
2023/03/08 08:21:23;;;;;;;16.65;7.90;;;;;;;11.45;35.21;98707.03;7710496;32;36172;-81
2023/03/08 08:25:45;;;;;;;17.17;8.13;;;;;;;11.70;36.00;98724.03;7710139;32;39416;-83
2023/03/08 08:30:05;;;;;;;17.20;8.50;;;;;;;11.78;35.41;98723.28;7710411;32;39967;-82
2023/03/08 08:34:21;;;;;;;15.32;8.10;;;;;;;11.83;34.68;98729.47;7709582;32;37496;-82
2023/03/08 08:38:38;;;;;;;12.18;7.37;;;;;;;11.36;35.70;98723.31;7710187;32;37482;-83
2023/03/08 08:42:54;;;;;;;16.05;7.60;;;;;;;11.75;34.82;98718.44;7710024;32;40145;-82
2023/03/08 08:47:12;;;;;;;15.35;7.50;;;;;;;11.83;35.24;98709.50;7713167;32;39135;-81
2023/03/08 08:51:29;;;;;;;16.40;7.57;;;;;;;11.87;35.74;98713.28;7712881;32;37508;-81
2023/03/08 08:55:45;;;;;;;16.90;6.85;;;;;;;12.57;33.21;98694.72;7713209;32;37962;-83
2023/03/08 09:00:07;;;;;;;19.12;7.75;;;;;;;12.18;33.55;98688.03;7711005;32;38404;-83
2023/03/08 09:04:25;;;;;;;18.20;7.95;;;;;;;12.61;33.22;98676.59;7713041;32;40862;-82
2023/03/08 09:08:44;;;;;;;14.15;7.25;;;;;;;12.72;32.88;98686.12;7712382;32;36959;-79
2023/03/08 09:13:03;;;;;;;13.02;7.18;;;;;;;12.99;32.31;98676.16;7711768;32;37064;-79
2023/03/08 09:17:21;;;;;;;17.75;7.60;;;;;;;13.32;31.47;98675.81;7710693;32;39364;-82
2023/03/08 09:21:38;;;;;;;12.85;7.07;;;;;;;12.88;32.92;98680.25;7709192;32;39842;-82
2023/03/08 09:25:58;;;;;;;11.93;6.75;;;;;;;12.99;31.86;98689.81;7711290;32;37767;-82
2023/03/08 09:30:17;;;;;;;16.12;7.32;;;;;;;12.40;33.37;98679.84;7711392;32;37943;-83
2023/03/08 09:34:34;;;;;;;14.10;7.45;;;;;;;12.20;32.33;98681.13;7712746;32;40014;-82
2023/03/08 09:38:52;;;;;;;12.82;6.85;;;;;;;12.56;31.99;98671.25;7712712;32;39713;-82
2023/03/08 09:43:17;;;;;;;14.80;7.07;;;;;;;11.90;33.80;98673.59;7712652;32;37745;-82
2023/03/08 09:47:50;;;;;;;13.38;6.53;;;;;;;12.87;33.18;98678.66;7711799;32;37973;-82
2023/03/08 09:52:11;;;;;;;16.50;6.18;;;;;;;12.34;31.36;98678.31;7711515;32;39068;-82
2023/03/08 09:56:44;;;;;;;14.15;7.10;;;;;;;12.95;32.65;98672.41;7710710;32;40836;-83
2023/03/08 10:01:27;;;;;;;13.23;7.18;;;;;;;12.60;30.68;98672.22;7712305;32;37822;-82
2023/03/08 10:06:04;;;;;;;13.43;7.80;;;;;;;12.66;30.98;98668.25;7712450;32;37537;-82
2023/03/08 10:10:34;;;;;;;11.65;6.70;;;;;;;13.23;30.69;98666.72;7712392;32;39959;-83
2023/03/08 10:15:08;;;;;;;14.80;6.55;;;;;;;14.03;29.48;98648.22;7712194;32;40737;-82
2023/03/08 10:19:47;;;;;;;15.75;7.10;;;;;;;14.07;28.84;98649.19;7711221;32;37606;-82
2023/03/08 10:24:27;;;;;;;12.75;7.10;;;;;;;13.80;29.84;98655.78;7703329;32;37234;-83
2023/03/08 10:28:46;;;;;;;14.67;7.33;;;;;;;13.65;29.13;98656.25;7712229;32;40054;-83
2023/03/08 10:33:10;;;;;;;12.57;6.90;;;;;;;13.81;28.42;98654.66;7712100;32;38919;-82
2023/03/08 10:37:32;;;;;;;11.77;6.47;;;;;;;14.20;28.75;98654.84;7710882;32;38403;-83
2023/03/08 10:41:56;;;;;;;12.93;6.43;;;;;;;14.02;27.73;98663.06;7712482;32;37178;-83
2023/03/08 10:46:16;;;;;;;13.70;7.68;;;;;;;14.38;28.59;98661.09;7710894;32;40032;-82
2023/03/08 10:50:35;;;;;;;18.75;6.45;;;;;;;14.38;27.98;98644.66;7711946;32;39713;-82
2023/03/08 10:55:25;;;;;;;14.35;6.85;;;;;;;14.92;26.80;98642.28;7711823;32;38772;-83
2023/03/08 10:59:47;;;;;;;12.35;6.28;;;;;;;14.62;26.87;98633.19;7703852;32;37127;-83
2023/03/08 11:04:16;;;;;;;12.13;5.90;;;;;;;15.42;26.88;98623.47;7710658;32;39273;-83
2023/03/08 11:08:37;;;;;;;10.70;5.75;;;;;;;15.14;26.06;98626.69;7710567;32;40552;-83
2023/03/08 11:13:17;;;;;;;12.73;6.82;;;;;;;14.57;27.12;98634.16;7711648;32;38728;-83
2023/03/08 11:17:38;;;;;;;12.55;6.82;;;;;;;14.61;27.00;98631.59;7711670;32;37979;-84
2023/03/08 11:22:20;;;;;;;13.02;6.25;;;;;;;15.38;25.87;98621.41;7711488;32;39116;-83
2023/03/08 11:27:00;;;;;;;11.45;6.47;;;;;;;15.32;25.86;98613.69;7711023;32;41731;-83
2023/03/08 11:31:21;;;;;;;12.50;6.10;;;;;;;15.39;25.51;98606.53;7711331;32;37948;-83
2023/03/08 11:35:38;;;;;;;11.63;5.75;;;;;;;15.51;25.51;98607.75;7711513;32;37400;-83
2023/03/08 11:40:29;;;;;;;12.07;6.05;;;;;;;16.14;25.48;98607.75;7711431;32;39964;-83
2023/03/08 11:45:26;;;;;;;11.00;5.65;;;;;;;16.02;24.57;98602.22;7693793;32;39626;-84
2023/03/08 11:50:22;;;;;;;12.57;5.47;;;;;;;15.52;25.62;98598.34;7710134;32;38538;-83
2023/03/08 11:54:48;;;;;;;;;;;;;;;15.22;25.24;98579.16;7711566;32;37616;-83
2023/03/08 11:59:15;;;;;;;;;;;;;;;14.76;25.76;98572.62;7711827;32;40207;-83
2023/03/08 12:03:35;;;;;;;13.93;5.60;;;;;;;15.20;26.58;98567.72;7711109;32;40162;-83
2023/03/08 12:08:12;;;;;;;12.60;5.82;;;;;;;15.03;26.35;98555.69;7709729;32;38747;-83
2023/03/08 12:12:36;;;;;;;12.65;5.97;;;;;;;15.32;25.17;98545.84;7709956;32;36865;-83
2023/03/08 12:17:11;;;;;;;10.85;5.15;;;;;;;14.64;25.92;98538.47;7708891;32;39873;-83
2023/03/08 12:22:00;;;;;;;10.40;5.35;;;;;;;14.77;26.36;98533.09;7709547;32;40894;-83
2023/03/08 12:26:47;;;;;;;10.70;5.93;;;;;;;14.63;26.57;98538.81;7709742;32;37581;-83
2023/03/08 12:31:31;;;;;;;11.20;6.10;;;;;;;14.40;26.17;98539.00;7705747;32;37233;-83
2023/03/08 12:36:02;;;;;;;12.52;6.55;;;;;;;13.95;27.23;98527.66;7710278;32;40059;-83
2023/03/08 12:40:43;;;;;;;11.30;6.32;;;;;;;13.80;27.61;98521.56;7710299;32;39613;-83
2023/03/08 12:45:18;;;;;;;12.70;6.82;;;;;;;13.82;28.02;98511.09;7708867;32;36870;-84
2023/03/08 12:49:37;;;;;;;12.75;5.93;;;;;;;14.20;28.43;98493.91;7709013;32;36883;-82
2023/03/08 12:53:57;;;;;;;11.88;6.20;;;;;;;14.25;27.79;98484.72;7709964;32;39296;-83
2023/03/08 12:58:16;;;;;;;14.27;6.25;;;;;;;14.03;27.95;98474.78;7709723;32;40825;-83
2023/03/08 13:02:35;;;;;;;10.75;5.43;;;;;;;14.29;27.32;98461.00;7696176;32;38414;-83
2023/03/08 13:07:03;;;;;;;10.55;5.12;;;;;;;13.78;27.77;98454.53;7708383;32;36400;-83
2023/03/08 13:11:19;;;;;;;13.40;6.03;;;;;;;14.09;28.50;98443.34;7709541;32;39357;-83
2023/03/08 13:15:36;;;;;;;9.50;4.57;;;;;;;14.14;27.27;98432.19;7708187;32;39979;-83
2023/03/08 13:20:14;;;;;;;10.13;5.00;;;;;;;13.83;26.27;98433.28;7708105;32;38083;-83
2023/03/08 13:24:42;;;;;;;10.02;5.12;;;;;;;13.58;26.68;98415.75;7707952;32;37977;-82
2023/03/08 13:28:58;;;;;;;12.20;5.32;;;;;;;13.64;27.19;98419.12;7709489;32;39054;-83
2023/03/08 13:33:39;;;;;;;10.55;5.18;;;;;;;13.44;29.57;98399.53;7712938;32;39945;-84
2023/03/08 13:38:00;;;;;;;14.87;5.63;;;;;;;13.88;28.93;98399.41;7712951;32;38730;-83
2023/03/08 13:42:22;;;;;;;11.75;5.95;;;;;;;14.08;28.28;98379.50;7712671;32;36922;-83
2023/03/08 13:46:41;;;;;;;14.82;5.75;;;;;;;14.58;28.22;98385.37;7712727;32;39828;-83
2023/03/08 13:50:58;;;;;;;12.55;5.57;;;;;;;14.38;27.68;98376.75;7712769;32;40162;-84
2023/03/08 13:55:19;;;;;;;16.30;7.03;;;;;;;14.15;28.15;98384.47;7711308;32;38649;-83
2023/03/08 13:59:51;;;;;;;12.80;6.00;;;;;;;13.52;29.17;98404.19;7712620;32;37173;-84
2023/03/08 14:04:15;;;;;;;12.13;6.40;;;;;;;13.47;29.53;98387.94;7712434;32;40173;-83
2023/03/08 14:08:32;;;;;;;13.60;6.30;;;;;;;13.20;30.00;98388.25;7712382;32;39977;-83
2023/03/08 14:12:48;;;;;;;16.77;6.07;;;;;;;13.09;30.97;98377.66;7712271;32;37979;-83
2023/03/08 14:17:14;;;;;;;14.05;6.20;;;;;;;13.33;30.44;98382.63;7712401;32;38870;-83
2023/03/08 14:21:30;;;;;;;12.60;5.97;;;;;;;13.44;30.08;98394.03;7712411;32;39014;-84
2023/03/08 14:25:56;;;;;;;13.93;6.53;;;;;;;13.99;29.67;98384.22;7712032;32;39965;-83
2023/03/08 14:30:16;;;;;;;15.27;6.03;;;;;;;13.95;29.32;98390.69;7712028;32;37561;-84
2023/03/08 14:34:43;;;;;;;10.93;5.75;;;;;;;14.52;29.14;98395.75;7711082;32;36962;-84
2023/03/08 14:39:00;;;;;;;12.35;6.70;;;;;;;14.49;28.70;98404.62;7712212;32;38832;-83
2023/03/08 14:43:21;;;;;;;12.45;6.32;;;;;;;14.42;28.97;98393.37;7711673;32;38962;-84
2023/03/08 14:47:47;;;;;;;14.50;6.40;;;;;;;14.28;29.42;98399.91;7710741;32;38832;-83
2023/03/08 14:52:17;;;;;;;13.07;6.32;;;;;;;13.84;30.09;98385.56;7711880;32;37938;-83
2023/03/08 14:56:35;;;;;;;11.93;5.93;;;;;;;13.85;30.25;98381.69;7710860;32;39471;-83
2023/03/08 15:00:53;;;;;;;16.02;6.10;;;;;;;13.68;31.50;98381.75;7711759;32;39971;-83
2023/03/08 15:05:15;;;;;;;16.33;6.05;;;;;;;13.44;31.65;98372.16;7711736;32;36899;-82
2023/03/08 15:09:44;;;;;;;;;;;;;;;13.43;31.30;98361.50;7712059;32;37110;-83
2023/03/08 15:14:00;;;;;;;14.85;6.93;;;;;;;13.44;31.54;98355.72;7711835;32;40413;-82
2023/03/08 15:18:19;;;;;;;14.57;6.43;;;;;;;13.02;32.96;98354.63;7711629;32;38985;-82
2023/03/08 15:22:47;;;;;;;13.25;7.03;;;;;;;13.01;33.38;98353.81;7711511;32;37890;-83
2023/03/08 15:27:04;;;;;;;13.60;6.87;;;;;;;13.10;33.23;98340.13;7711294;32;37166;-82
2023/03/08 15:31:20;;;;;;;13.23;7.37;;;;;;;12.63;34.60;98332.59;7711713;32;39049;-82
2023/03/08 15:35:40;;;;;;;14.80;6.80;;;;;;;13.05;34.37;98321.94;7711407;32;40229;-82
2023/03/08 15:39:56;;;;;;;14.98;7.10;;;;;;;13.02;34.79;98306.19;7711216;32;37595;-82
2023/03/08 15:44:13;;;;;;;14.07;7.18;;;;;;;12.68;36.38;98302.34;7711247;32;37965;-82
2023/03/08 15:48:29;;;;;;;14.23;6.53;;;;;;;12.88;36.17;98291.88;7711226;32;39334;-83
2023/03/08 15:52:48;;;;;;;16.40;6.65;;;;;;;12.44;37.86;98285.63;7710197;32;39167;-82
2023/03/08 15:57:08;;;;;;;15.98;6.43;;;;;;;12.30;38.32;98286.59;7710960;32;38711;-82
2023/03/08 16:01:25;;;;;;;11.23;5.82;;;;;;;12.65;38.27;98272.13;7711045;32;37992;-82
2023/03/08 16:05:41;;;;;;;13.60;6.47;;;;;;;12.91;37.81;98283.03;7710945;32;39330;-84
2023/03/08 16:09:58;;;;;;;12.37;6.05;;;;;;;12.55;38.88;98286.91;7711046;32;40760;-82
2023/03/08 16:14:16;;;;;;;10.07;5.47;;;;;;;12.36;39.76;98274.34;7710732;32;37953;-83
2023/03/08 16:18:36;;;;;;;14.63;6.22;;;;;;;12.04;40.71;98272.88;7710900;32;37639;-82
2023/03/08 16:22:53;;;;;;;13.50;6.60;;;;;;;12.32;40.55;98270.66;7710514;32;39451;-83
2023/03/08 16:27:10;;;;;;;11.75;5.68;;;;;;;12.60;40.20;98273.06;7710366;32;39728;-83
2023/03/08 16:31:26;;;;;;;12.65;5.57;;;;;;;12.69;40.18;98271.13;7710548;32;37647;-81
2023/03/08 16:35:51;;;;;;;9.75;5.00;;;;;;;12.48;41.07;98268.25;7710551;32;36124;-82
2023/03/08 16:40:08;;;;;;;12.27;5.70;;;;;;;12.76;40.93;98260.53;7710221;32;39500;-83
2023/03/08 16:44:27;;;;;;;13.50;6.55;;;;;;;12.59;41.50;98257.81;7709527;32;39913;-83
2023/03/08 16:48:43;;;;;;;13.35;6.32;;;;;;;12.50;42.04;98257.78;7710013;32;37987;-82
2023/03/08 16:52:59;;;;;;;16.10;6.53;;;;;;;12.55;42.49;98254.09;7709965;32;37139;-83
2023/03/08 16:57:16;;;;;;;12.93;6.55;;;;;;;12.14;44.56;98233.50;7709868;32;39175;-82
2023/03/08 17:01:34;;;;;;;12.25;6.15;;;;;;;12.52;43.84;98235.59;7709816;32;39039;-82
2023/03/08 17:05:51;;;;;;;10.68;5.72;;;;;;;12.24;44.81;98219.53;7712235;32;38490;-82
2023/03/08 17:10:10;;;;;;;11.60;5.55;;;;;;;12.12;45.64;98222.09;7713227;32;36079;-83
2023/03/08 17:14:26;;;;;;;18.10;7.00;;;;;;;12.49;45.30;98230.81;7711943;32;39124;-82
2023/03/08 17:18:42;;;;;;;14.65;6.85;;;;;;;12.23;46.23;98231.63;7712975;32;40538;-82
2023/03/08 17:23:01;;;;;;;10.40;5.82;;;;;;;12.75;45.09;98228.84;7713325;32;37866;-82
2023/03/08 17:27:20;;;;;;;13.50;6.07;;;;;;;12.46;46.12;98237.72;7712888;32;37320;-83
2023/03/08 17:31:39;;;;;;;10.70;5.28;;;;;;;13.00;44.82;98237.31;7712993;32;39443;-82
2023/03/08 17:35:58;;;;;;;10.95;5.20;;;;;;;12.84;46.00;98228.81;7712866;32;39934;-82
2023/03/08 17:40:14;;;;;;;10.45;5.20;;;;;;;12.93;46.02;98239.75;7712732;32;37580;-81
2023/03/08 17:44:33;;;;;;;11.35;5.32;;;;;;;13.10;45.65;98231.50;7712673;32;37053;-82
2023/03/08 17:48:51;;;;;;;11.93;5.93;;;;;;;13.29;45.07;98242.06;7712666;32;40268;-83
2023/03/08 17:53:11;;;;;;;9.07;5.28;;;;;;;13.43;44.62;98225.44;7712864;32;39001;-82
2023/03/08 17:57:27;;;;;;;12.32;5.70;;;;;;;13.39;44.92;98205.34;7712577;32;38041;-82
2023/03/08 18:01:44;;;;;;;12.45;6.03;;;;;;;13.39;45.42;98207.28;7712557;32;38017;-82
2023/03/08 18:06:00;;;;;;;15.30;5.78;;;;;;;13.34;45.62;98208.28;7712323;32;40027;-82
2023/03/08 18:10:17;;;;;;;11.75;5.43;;;;;;;13.09;46.67;98208.00;7712437;32;39537;-82
2023/03/08 18:14:35;;;;;;;8.70;4.87;;;;;;;13.21;47.01;98201.03;7711889;32;38159;-82
2023/03/08 18:18:55;;;;;;;10.77;4.85;;;;;;;13.52;46.21;98182.41;7712350;32;37044;-82
2023/03/08 18:23:12;;;;;;;9.00;4.57;;;;;;;13.44;46.69;98179.72;7712365;32;40157;-82
2023/03/08 18:27:28;;;;;;;9.77;4.20;;;;;;;13.14;47.79;98177.75;7712101;32;41296;-82
2023/03/08 18:31:45;;;;;;;8.77;3.78;;;;;;;13.31;47.37;98167.84;7712194;32;38618;-82
2023/03/08 18:36:02;;;;;;;7.12;4.00;;;;;;;13.18;47.69;98160.62;7712310;32;37310;-83
2023/03/08 18:40:18;;;;;;;8.43;4.12;;;;;;;13.57;46.67;98155.97;7711062;32;39866;-81
2023/03/08 18:44:37;;;;;;;10.48;3.80;;;;;;;13.44;47.27;98144.16;7710382;32;39954;-82
2023/03/08 18:49:02;;;;;;;6.85;3.58;;;;;;;12.98;48.53;98146.56;7711161;32;37847;-84
2023/03/08 18:53:19;;;;;;;7.37;3.37;;;;;;;13.33;47.43;98150.00;7711974;32;37367;-82
2023/03/08 18:57:35;;;;;;;8.93;3.03;;;;;;;13.33;47.49;98139.06;7711839;32;39648;-83
2023/03/08 19:01:52;;;;;;;5.12;2.90;;;;;;;12.85;47.87;98120.22;7709684;32;39959;-84
2023/03/08 19:06:09;;;;;;;7.47;3.12;;;;;;;13.17;46.98;98134.44;7710149;32;38746;-83
2023/03/08 19:10:26;;;;;;;5.78;2.90;;;;;;;12.85;48.34;98142.09;7711586;32;37041;-83
2023/03/08 19:14:44;;;;;;;8.07;3.20;;;;;;;12.47;49.31;98171.00;7711746;32;40348;-83
2023/03/08 19:19:03;;;;;;;5.93;3.42;;;;;;;12.56;49.37;98173.72;7711135;32;39901;-82
2023/03/08 19:23:19;;;;;;;7.20;3.50;;;;;;;12.43;49.41;98150.09;7711581;32;37925;-82
2023/03/08 19:27:35;;;;;;;6.53;3.37;;;;;;;12.24;50.50;98134.06;7710921;32;37809;-84
2023/03/08 19:32:03;;;;;;;7.28;3.20;;;;;;;12.31;50.15;98146.09;7711212;32;39271;-81
2023/03/08 19:36:20;;;;;;;5.47;3.50;;;;;;;11.97;51.53;98141.44;7711523;32;39690;-82
2023/03/08 19:40:37;;;;;;;7.00;3.65;;;;;;;12.03;50.94;98149.16;7709917;32;37565;-81
2023/03/08 19:44:54;;;;;;;7.62;3.20;;;;;;;12.16;51.01;98152.88;7710929;32;35615;-83
2023/03/08 19:49:12;;;;;;;8.35;3.78;;;;;;;11.94;51.35;98142.09;7709644;32;40396;-84
2023/03/08 19:53:29;;;;;;;7.30;3.58;;;;;;;12.25;50.71;98155.59;7709852;32;39962;-83
2023/03/08 19:57:45;;;;;;;11.60;4.40;;;;;;;12.27;50.42;98145.12;7710367;32;38705;-83
2023/03/08 20:02:02;;;;;;;7.25;3.62;;;;;;;12.13;51.13;98144.50;7710478;32;37349;-86
2023/03/08 20:06:27;;;;;;;6.30;3.65;;;;;;;12.28;50.61;98132.28;7710106;32;40171;-84
2023/03/08 20:10:43;;;;;;;8.02;4.03;;;;;;;12.02;51.10;98127.63;7709950;32;40063;-81
2023/03/08 20:15:00;;;;;;;7.82;3.58;;;;;;;12.18;50.79;98130.69;7705680;32;37797;-83
2023/03/08 20:19:17;;;;;;;5.32;3.03;;;;;;;12.69;49.01;98126.22;7728212;32;36896;-82
2023/03/08 20:23:34;;;;;;;5.78;3.37;;;;;;;12.33;49.25;98129.38;7736138;32;39387;-82
2023/03/08 20:27:50;;;;;;;7.37;3.35;;;;;;;12.39;49.48;98130.81;7736545;32;39982;-83
2023/03/08 20:32:06;;;;;;;7.50;3.35;;;;;;;12.28;49.83;98124.91;7736628;32;37525;-82